Mendenhall, Mississippi
Current Conditions -  °F | °C
As of 5:54 PM on Wednesday 28 Jan 2015 (Local Time) from KJAN Reporting Station
Clear Clear  
Wind Chill: 53°   Ceiling: Unl
Heat Index: 53°   Visibility: 10mi
Dew Point: 36°   Wind: 9mph
Humidity: 52%   Direction: 130°SE
Pressure: 30.18"   Gusts: NA
Location:  31.96°N, 89.87°W
Report Text: KJAN 282354Z 13008KT 10SM CLR 12/02 A3018 RMK AO2 SLP221 T01170022 10200 20117 56003
Loading
Personal Weather Stations






























Interactive Weather Map New forecast layout! Learn more

10-Day Weather Forecast

Advertisements
Track Severe Weather on mobile